createdAt,value
2023-05-01T00:01:50.013Z,3.89
2023-05-01T00:05:30.919Z,3.82
2023-05-01T00:08:49.354Z,3.74
2023-05-01T00:12:30.946Z,3.66
2023-05-01T00:16:17.115Z,3.61
2023-05-01T00:19:42.459Z,3.55
2023-05-01T00:23:20.948Z,3.49
2023-05-01T00:27:01.320Z,3.40
2023-05-01T00:30:53.512Z,3.29
2023-05-01T00:34:14.255Z,3.19
2023-05-01T00:37:52.435Z,3.12
2023-05-01T00:41:30.117Z,3.06
2023-05-01T00:45:16.406Z,2.99
2023-05-01T00:48:44.588Z,2.88
2023-05-01T00:52:30.186Z,2.78
2023-05-01T00:56:16.858Z,2.71
2023-05-01T00:59:37.254Z,2.67
2023-05-01T01:03:15.263Z,2.62
2023-05-01T01:06:57.496Z,2.53
2023-05-01T01:10:53.041Z,2.42
2023-05-01T01:14:12.328Z,2.35
2023-05-01T01:18:08.135Z,2.29
2023-05-01T01:21:27.793Z,2.26
2023-05-01T01:25:27.733Z,2.24
2023-05-01T01:29:30.154Z,2.20
2023-05-01T01:32:28.264Z,2.15
2023-05-01T01:36:17.236Z,2.06
2023-05-01T01:39:54.609Z,1.99
2023-05-01T01:43:28.878Z,2.01
2023-05-01T01:47:09.842Z,2.00
2023-05-01T01:50:45.497Z,1.93
2023-05-01T01:54:51.934Z,1.83
2023-05-01T01:58:00.942Z,1.80
2023-05-01T02:01:52.438Z,1.79
2023-05-01T02:05:16.681Z,1.79
2023-05-01T02:09:20.975Z,1.72
2023-05-01T02:12:57.520Z,1.65
2023-05-01T02:16:18.544Z,1.60
2023-05-01T02:20:12.688Z,1.58
2023-05-01T02:23:42.537Z,1.54
2023-05-01T02:27:15.279Z,1.49
2023-05-01T02:31:04.649Z,1.41
2023-05-01T02:34:37.185Z,1.37
2023-05-01T02:38:01.780Z,1.34
2023-05-01T02:41:47.565Z,1.31
2023-05-01T02:45:33.247Z,1.27
2023-05-01T02:49:10.511Z,1.24
2023-05-01T02:52:48.669Z,1.20
2023-05-01T02:56:26.885Z,1.18
2023-05-01T03:00:03.457Z,1.14
2023-05-01T03:03:40.208Z,1.05
2023-05-01T03:07:51.622Z,0.97
2023-05-01T03:11:02.653Z,0.95
2023-05-01T03:14:38.442Z,0.97
2023-05-01T03:18:31.168Z,0.99
2023-05-01T03:22:11.376Z,0.96
2023-05-01T03:25:42.066Z,0.93
2023-05-01T03:29:24.259Z,0.91
2023-05-01T03:32:55.535Z,0.93
2023-05-01T03:36:35.167Z,0.96
2023-05-01T03:40:26.370Z,0.99
2023-05-01T03:44:07.526Z,1.06
2023-05-01T03:47:25.142Z,1.12
2023-05-01T03:51:01.900Z,1.17
2023-05-01T03:55:01.913Z,1.22
2023-05-01T03:58:24.757Z,1.33
2023-05-01T04:02:01.592Z,1.42
2023-05-01T04:05:47.081Z,1.62
2023-05-01T04:10:00.140Z,1.65
2023-05-01T04:13:27.337Z,1.70
2023-05-01T04:17:15.180Z,1.81
2023-05-01T04:20:25.882Z,1.99
2023-05-01T04:24:01.588Z,2.10
2023-05-01T04:27:46.534Z,2.18
2023-05-01T04:31:22.501Z,2.27
2023-05-01T04:35:09.113Z,2.36
2023-05-01T04:38:48.576Z,2.48
2023-05-01T04:42:39.973Z,2.63
2023-05-01T04:46:17.349Z,2.79
2023-05-01T04:49:41.937Z,3.01
2023-05-01T04:53:26.078Z,3.30
2023-05-01T04:57:03.417Z,3.59
2023-05-01T05:00:49.638Z,4.13
2023-05-01T05:04:09.407Z,4.53
2023-05-01T05:07:50.484Z,4.99
2023-05-01T05:11:24.646Z,5.23
2023-05-01T05:15:02.266Z,5.40
2023-05-01T05:19:04.815Z,5.57
2023-05-01T05:22:16.639Z,5.70
2023-05-01T05:26:40.909Z,5.88
2023-05-01T05:30:22.368Z,6.23
2023-05-01T05:33:49.584Z,6.49
2023-05-01T05:37:33.041Z,6.57
2023-05-01T05:40:55.595Z,6.62
2023-05-01T05:44:36.106Z,6.68
2023-05-01T05:48:27.244Z,6.73
2023-05-01T05:51:49.246Z,6.78
2023-05-01T05:55:25.916Z,6.84
2023-05-01T05:59:07.498Z,6.91
2023-05-01T06:02:49.225Z,7.04
2023-05-01T06:06:19.181Z,7.13
2023-05-01T06:10:01.684Z,7.23
2023-05-01T06:13:50.548Z,7.36
2023-05-01T06:17:15.984Z,7.85
2023-05-01T06:20:49.900Z,9.76
2023-05-01T06:24:39.839Z,11.83
2023-05-01T06:28:05.502Z,13.52
2023-05-01T06:32:00.196Z,15.03
2023-05-01T06:35:47.788Z,16.39
2023-05-01T06:39:02.561Z,17.45
2023-05-01T06:42:46.201Z,18.30
2023-05-01T06:46:17.377Z,18.97
2023-05-01T06:49:51.433Z,19.45
2023-05-01T06:53:27.542Z,19.86
2023-05-01T06:57:20.392Z,20.20
2023-05-01T07:00:48.026Z,20.38
2023-05-01T07:04:47.855Z,20.67
2023-05-01T07:08:31.553Z,21.01
2023-05-01T07:11:58.236Z,21.35
2023-05-01T07:15:42.874Z,21.83
2023-05-01T07:19:04.193Z,22.04
2023-05-01T07:22:58.188Z,22.06
2023-05-01T07:26:20.136Z,22.06
2023-05-01T07:30:14.855Z,22.01
2023-05-01T07:33:34.763Z,22.13
2023-05-01T07:37:29.131Z,22.04
2023-05-01T07:41:05.274Z,21.91
2023-05-01T07:44:27.775Z,21.78
2023-05-01T07:48:26.283Z,21.76
2023-05-01T07:51:53.228Z,21.69
2023-05-01T07:55:26.606Z,21.32
2023-05-01T07:59:08.684Z,20.71
2023-05-01T08:02:37.930Z,19.90
2023-05-01T08:06:12.309Z,19.21
2023-05-01T08:09:59.979Z,18.53
2023-05-01T08:13:36.022Z,18.17
2023-05-01T08:17:21.464Z,17.76
2023-05-01T08:20:58.907Z,17.58
2023-05-01T08:24:44.354Z,17.23
2023-05-01T08:28:30.881Z,17.02
2023-05-01T08:31:51.900Z,16.91
2023-05-01T08:35:33.069Z,16.74
2023-05-01T08:39:12.035Z,16.63
2023-05-01T08:42:43.278Z,16.54
2023-05-01T08:46:34.624Z,16.49
2023-05-01T08:50:14.069Z,16.40
2023-05-01T08:54:02.687Z,16.27
2023-05-01T08:57:37.610Z,16.29
2023-05-01T09:01:01.387Z,16.37
2023-05-01T09:04:38.495Z,16.40
2023-05-01T09:08:14.804Z,16.31
2023-05-01T09:11:50.473Z,16.26
2023-05-01T09:15:33.242Z,16.20
2023-05-01T09:19:35.068Z,16.13
2023-05-01T09:23:03.920Z,16.19
2023-05-01T09:27:01.078Z,16.20
2023-05-01T09:30:12.288Z,16.18
2023-05-01T09:33:59.694Z,16.16
2023-05-01T09:37:52.785Z,16.15
2023-05-01T09:41:12.860Z,16.08
2023-05-01T09:45:13.277Z,16.08
2023-05-01T09:48:55.116Z,16.02
2023-05-01T09:52:16.888Z,16.04
2023-05-01T09:56:01.660Z,16.02
2023-05-01T09:59:35.752Z,16.06
2023-05-01T10:03:16.787Z,16.10
2023-05-01T10:06:38.209Z,16.15
2023-05-01T10:10:24.558Z,16.14
2023-05-01T10:14:10.254Z,16.16
2023-05-01T10:17:47.566Z,16.11
2023-05-01T10:21:17.205Z,16.15
2023-05-01T10:24:46.257Z,16.09
2023-05-01T10:28:41.238Z,16.06
2023-05-01T10:32:00.749Z,16.09
2023-05-01T10:35:38.960Z,16.08
2023-05-01T10:39:34.428Z,16.14
2023-05-01T10:43:19.665Z,16.16
2023-05-01T10:47:03.413Z,16.20
2023-05-01T10:51:12.056Z,16.22
2023-05-01T10:55:37.112Z,16.22
2023-05-01T10:58:59.424Z,16.24
2023-05-01T11:02:26.602Z,16.26
2023-05-01T11:06:14.791Z,16.28
2023-05-01T11:10:28.659Z,16.29
2023-05-01T11:13:58.510Z,16.35
2023-05-01T11:17:49.572Z,16.42
2023-05-01T11:21:08.937Z,16.53
2023-05-01T11:24:45.524Z,16.60
2023-05-01T11:28:09.759Z,16.70
2023-05-01T11:32:04.033Z,16.71
2023-05-01T11:36:01.110Z,16.71
2023-05-01T11:39:01.132Z,16.68
2023-05-01T11:43:05.495Z,16.73
2023-05-01T11:46:28.627Z,16.85
2023-05-01T11:50:35.138Z,16.93
2023-05-01T11:54:15.117Z,16.93
2023-05-01T11:57:27.720Z,16.92
2023-05-01T12:01:36.139Z,16.93
2023-05-01T12:05:17.962Z,16.97
2023-05-01T12:08:49.737Z,17.02
2023-05-01T12:12:22.666Z,17.11
2023-05-01T12:15:53.944Z,17.13
2023-05-01T12:19:49.161Z,17.16
2023-05-01T12:23:37.016Z,17.26
2023-05-01T12:26:36.537Z,17.22
2023-05-01T12:30:25.289Z,17.21
2023-05-01T12:33:58.447Z,17.21
2023-05-01T12:38:03.627Z,17.21
2023-05-01T12:41:39.213Z,17.28
2023-05-01T12:45:09.212Z,17.43
2023-05-01T12:48:35.547Z,17.49
2023-05-01T12:52:35.540Z,17.52
2023-05-01T12:56:23.158Z,17.49
2023-05-01T13:00:01.141Z,17.52
2023-05-01T13:03:27.874Z,17.64
2023-05-01T13:07:14.151Z,17.71
2023-05-01T13:10:44.782Z,17.76
2023-05-01T13:14:23.870Z,17.81
2023-05-01T13:17:44.622Z,17.86
2023-05-01T13:21:47.741Z,17.91
2023-05-01T13:25:19.964Z,17.96
2023-05-01T13:28:38.563Z,17.98
2023-05-01T13:32:42.003Z,18.01
2023-05-01T13:36:03.054Z,18.01
2023-05-01T13:39:38.861Z,18.02
2023-05-01T13:43:35.493Z,18.00
2023-05-01T13:46:53.209Z,18.08
2023-05-01T13:50:54.865Z,18.09
2023-05-01T13:54:26.217Z,18.07
2023-05-01T13:58:08.654Z,18.04
2023-05-01T14:01:31.649Z,17.99
2023-05-01T14:05:11.826Z,17.99
2023-05-01T14:09:05.049Z,17.98
2023-05-01T14:12:27.817Z,17.99
2023-05-01T14:16:23.668Z,18.04
2023-05-01T14:19:54.851Z,18.08
2023-05-01T14:23:25.911Z,18.08
2023-05-01T14:27:26.668Z,18.06
2023-05-01T14:30:49.724Z,18.09
2023-05-01T14:34:53.038Z,18.16
2023-05-01T14:38:11.450Z,18.20
2023-05-01T14:41:43.525Z,18.26
2023-05-01T14:45:41.737Z,18.32
2023-05-01T14:49:05.031Z,18.35
2023-05-01T14:52:32.611Z,18.33
2023-05-01T14:56:32.252Z,18.34
2023-05-01T15:00:15.957Z,18.37
2023-05-01T15:03:43.953Z,18.37
2023-05-01T15:07:35.531Z,18.33
2023-05-01T15:11:03.254Z,18.30
2023-05-01T15:14:29.490Z,18.25
2023-05-01T15:18:30.760Z,18.23
2023-05-01T15:21:41.434Z,18.21
2023-05-01T15:25:27.179Z,18.21
2023-05-01T15:29:23.971Z,18.20
2023-05-01T15:32:51.899Z,18.18
2023-05-01T15:36:12.380Z,18.12
2023-05-01T15:40:10.310Z,18.09
2023-05-01T15:43:45.588Z,18.07
2023-05-01T15:47:22.230Z,18.03
2023-05-01T15:50:43.274Z,17.98
2023-05-01T15:54:21.707Z,17.92
2023-05-01T15:57:58.728Z,17.84
2023-05-01T16:01:54.916Z,17.81
2023-05-01T16:05:29.121Z,17.77
2023-05-01T16:08:52.098Z,17.71
2023-05-01T16:12:30.293Z,17.62
2023-05-01T16:16:23.801Z,17.53
2023-05-01T16:19:46.652Z,17.47
2023-05-01T16:23:42.967Z,17.42
2023-05-01T16:27:27.349Z,17.38
2023-05-01T16:30:52.941Z,17.34
2023-05-01T16:34:21.840Z,17.29
2023-05-01T16:38:09.452Z,17.24
2023-05-01T16:41:31.269Z,17.17
2023-05-01T16:45:23.907Z,17.09
2023-05-01T16:48:50.264Z,17.02
2023-05-01T16:52:41.427Z,16.90
2023-05-01T16:56:28.986Z,16.80
2023-05-01T16:59:39.800Z,16.71
2023-05-01T17:03:36.278Z,16.59
2023-05-01T17:06:53.553Z,16.48
2023-05-01T17:10:41.852Z,16.33
2023-05-01T17:14:16.574Z,16.17
2023-05-01T17:18:10.790Z,16.01
2023-05-01T17:21:50.101Z,15.86
2023-05-01T17:25:19.335Z,15.71
2023-05-01T17:28:47.124Z,15.56
2023-05-01T17:32:40.773Z,15.41
2023-05-01T17:36:04.037Z,15.28
2023-05-01T17:39:41.164Z,15.13
2023-05-01T17:43:35.599Z,14.98
2023-05-01T17:47:05.507Z,14.86
2023-05-01T17:50:43.561Z,14.72
2023-05-01T17:54:31.536Z,14.57
2023-05-01T17:58:03.418Z,14.44
2023-05-01T18:01:53.178Z,14.27
2023-05-01T18:05:19.871Z,14.11
2023-05-01T18:09:07.017Z,13.91
2023-05-01T18:12:46.451Z,13.72
2023-05-01T18:16:24.050Z,13.54
2023-05-01T18:19:33.104Z,13.34
2023-05-01T18:23:20.287Z,13.09
2023-05-01T18:26:55.750Z,12.88
2023-05-01T18:30:33.737Z,12.68
2023-05-01T18:34:27.861Z,12.51
2023-05-01T18:37:48.742Z,12.35
2023-05-01T18:41:30.101Z,12.19
2023-05-01T18:45:20.983Z,12.04
2023-05-01T18:48:59.473Z,11.93
2023-05-01T18:52:37.525Z,11.84
2023-05-01T18:55:57.290Z,11.72
2023-05-01T18:59:35.886Z,11.59
2023-05-01T19:03:24.155Z,11.48
2023-05-01T19:06:50.938Z,11.39
2023-05-01T19:10:38.366Z,11.33
2023-05-01T19:14:05.735Z,11.28
2023-05-01T19:18:01.875Z,11.24
2023-05-01T19:21:38.079Z,11.20
2023-05-01T19:25:00.637Z,11.13
2023-05-01T19:28:54.423Z,11.05
2023-05-01T19:32:14.523Z,10.97
2023-05-01T19:36:10.117Z,10.92
2023-05-01T19:39:30.284Z,10.86
2023-05-01T19:43:24.414Z,10.81
2023-05-01T19:47:02.074Z,10.77
2023-05-01T19:50:23.008Z,10.72
2023-05-01T19:54:15.784Z,10.68
2023-05-01T19:57:53.322Z,10.64
2023-05-01T20:01:16.365Z,10.61
2023-05-01T20:05:27.232Z,10.56
2023-05-01T20:08:48.612Z,10.52
2023-05-01T20:12:17.491Z,10.48
2023-05-01T20:15:57.018Z,10.43
2023-05-01T20:19:24.946Z,10.40
2023-05-01T20:23:22.749Z,10.36
2023-05-01T20:26:53.994Z,10.33
2023-05-01T20:30:16.918Z,10.29
2023-05-01T20:34:22.798Z,10.24
2023-05-01T20:37:43.014Z,10.20
2023-05-01T20:41:19.016Z,10.14
2023-05-01T20:45:11.505Z,10.08
2023-05-01T20:48:32.861Z,10.00
2023-05-01T20:52:27.529Z,9.91
2023-05-01T20:56:05.521Z,9.83
2023-05-01T20:59:35.626Z,9.74
2023-05-01T21:03:18.157Z,9.64
2023-05-01T21:06:41.866Z,9.54
2023-05-01T21:10:36.488Z,9.43
2023-05-01T21:13:56.573Z,9.31
2023-05-01T21:17:36.053Z,9.18
2023-05-01T21:21:11.879Z,9.06
2023-05-01T21:25:00.906Z,8.94
2023-05-01T21:28:46.389Z,8.86
2023-05-01T21:32:05.483Z,8.79
2023-05-01T21:35:57.498Z,8.73
2023-05-01T21:39:24.451Z,8.70
2023-05-01T21:43:25.077Z,8.70
2023-05-01T21:46:46.016Z,8.70
2023-05-01T21:50:23.765Z,8.69
2023-05-01T21:53:49.319Z,8.70
2023-05-01T21:57:33.523Z,8.69
2023-05-01T22:01:18.732Z,8.70
2023-05-01T22:05:31.374Z,8.71
2023-05-01T22:08:55.976Z,8.73
2023-05-01T22:12:17.005Z,8.73
2023-05-01T22:16:12.724Z,8.71
2023-05-01T22:19:45.692Z,8.70
2023-05-01T22:23:17.684Z,8.68
2023-05-01T22:27:03.809Z,8.65
2023-05-01T22:30:57.391Z,8.62
2023-05-01T22:34:21.790Z,8.59
2023-05-01T22:37:53.875Z,8.56
2023-05-01T22:41:39.846Z,8.52
2023-05-01T22:45:16.775Z,8.49
2023-05-01T22:48:57.693Z,8.44
2023-05-01T22:52:48.580Z,8.40
2023-05-01T22:56:26.802Z,8.36
2023-05-01T22:59:48.380Z,8.32
2023-05-01T23:03:26.426Z,8.25
2023-05-01T23:07:21.549Z,8.20
2023-05-01T23:10:43.079Z,8.14
2023-05-01T23:14:46.416Z,8.08
2023-05-01T23:18:24.769Z,7.98
2023-05-01T23:21:41.833Z,7.95
2023-05-01T23:25:28.400Z,7.88
2023-05-01T23:29:05.652Z,7.82
2023-05-01T23:32:59.246Z,7.77
2023-05-01T23:36:31.263Z,7.71
2023-05-01T23:39:58.687Z,7.66
2023-05-01T23:43:58.556Z,7.60
2023-05-01T23:47:41.889Z,7.57
2023-05-01T23:51:17.017Z,7.55
2023-05-01T23:54:55.028Z,7.52
2023-05-01T23:58:13.624Z,7.48
